sensor_id;sensor_type;location;lat;lon;timestamp;P1;durP1;ratioP1;P2;durP2;ratioP2
11139;SDS011;5624;49.388;11.350;2023-12-07T00:02:18;29.77;;;25.63;;
11139;SDS011;5624;49.388;11.350;2023-12-07T00:04:44;28.43;;;25.17;;
11139;SDS011;5624;49.388;11.350;2023-12-07T00:07:09;29.77;;;24.57;;
11139;SDS011;5624;49.388;11.350;2023-12-07T00:09:35;28.00;;;24.57;;
11139;SDS011;5624;49.388;11.350;2023-12-07T00:12:00;30.67;;;25.27;;
11139;SDS011;5624;49.388;11.350;2023-12-07T00:14:26;28.40;;;25.30;;
11139;SDS011;5624;49.388;11.350;2023-12-07T00:16:51;28.33;;;23.60;;
11139;SDS011;5624;49.388;11.350;2023-12-07T00:19:17;28.60;;;23.47;;
11139;SDS011;5624;49.388;11.350;2023-12-07T00:21:42;27.77;;;24.77;;
11139;SDS011;5624;49.388;11.350;2023-12-07T00:24:08;36.33;;;28.13;;
11139;SDS011;5624;49.388;11.350;2023-12-07T00:26:33;32.97;;;27.93;;
11139;SDS011;5624;49.388;11.350;2023-12-07T00:28:59;33.57;;;26.87;;
11139;SDS011;5624;49.388;11.350;2023-12-07T00:31:24;34.20;;;27.13;;
11139;SDS011;5624;49.388;11.350;2023-12-07T00:33:51;29.83;;;25.93;;
11139;SDS011;5624;49.388;11.350;2023-12-07T00:36:16;31.83;;;27.53;;
11139;SDS011;5624;49.388;11.350;2023-12-07T00:38:42;31.70;;;26.97;;
11139;SDS011;5624;49.388;11.350;2023-12-07T00:41:07;33.33;;;26.67;;
11139;SDS011;5624;49.388;11.350;2023-12-07T00:43:33;31.87;;;26.00;;
11139;SDS011;5624;49.388;11.350;2023-12-07T00:45:58;30.90;;;25.83;;
11139;SDS011;5624;49.388;11.350;2023-12-07T00:48:24;31.50;;;26.40;;
11139;SDS011;5624;49.388;11.350;2023-12-07T00:50:50;32.73;;;26.80;;
11139;SDS011;5624;49.388;11.350;2023-12-07T00:53:15;27.83;;;24.93;;
11139;SDS011;5624;49.388;11.350;2023-12-07T00:55:41;26.40;;;23.60;;
11139;SDS011;5624;49.388;11.350;2023-12-07T00:58:06;29.93;;;25.20;;
11139;SDS011;5624;49.388;11.350;2023-12-07T01:00:32;27.87;;;24.73;;
11139;SDS011;5624;49.388;11.350;2023-12-07T01:02:58;28.60;;;24.93;;
11139;SDS011;5624;49.388;11.350;2023-12-07T01:05:23;29.53;;;24.77;;
11139;SDS011;5624;49.388;11.350;2023-12-07T01:07:49;30.60;;;24.73;;
11139;SDS011;5624;49.388;11.350;2023-12-07T01:10:14;27.27;;;23.33;;
11139;SDS011;5624;49.388;11.350;2023-12-07T01:12:40;27.33;;;24.17;;
11139;SDS011;5624;49.388;11.350;2023-12-07T01:15:05;28.10;;;25.03;;
11139;SDS011;5624;49.388;11.350;2023-12-07T01:17:31;29.00;;;23.37;;
11139;SDS011;5624;49.388;11.350;2023-12-07T01:19:57;28.80;;;24.73;;
11139;SDS011;5624;49.388;11.350;2023-12-07T01:22:22;30.43;;;25.70;;
11139;SDS011;5624;49.388;11.350;2023-12-07T01:24:48;29.87;;;25.13;;
11139;SDS011;5624;49.388;11.350;2023-12-07T01:27:13;29.47;;;25.47;;
11139;SDS011;5624;49.388;11.350;2023-12-07T01:29:39;30.83;;;26.03;;
11139;SDS011;5624;49.388;11.350;2023-12-07T01:32:05;32.80;;;26.40;;
11139;SDS011;5624;49.388;11.350;2023-12-07T01:34:30;28.00;;;23.43;;
11139;SDS011;5624;49.388;11.350;2023-12-07T01:36:57;28.20;;;24.80;;
11139;SDS011;5624;49.388;11.350;2023-12-07T01:39:23;29.93;;;24.93;;
11139;SDS011;5624;49.388;11.350;2023-12-07T01:41:49;28.83;;;25.30;;
11139;SDS011;5624;49.388;11.350;2023-12-07T01:44:15;30.80;;;26.30;;
11139;SDS011;5624;49.388;11.350;2023-12-07T01:46:40;28.00;;;24.00;;
11139;SDS011;5624;49.388;11.350;2023-12-07T01:49:07;29.50;;;25.00;;
11139;SDS011;5624;49.388;11.350;2023-12-07T01:51:33;30.03;;;26.17;;
11139;SDS011;5624;49.388;11.350;2023-12-07T01:53:59;29.67;;;24.97;;
11139;SDS011;5624;49.388;11.350;2023-12-07T01:56:25;30.07;;;25.53;;
11139;SDS011;5624;49.388;11.350;2023-12-07T01:58:51;27.40;;;22.93;;
11139;SDS011;5624;49.388;11.350;2023-12-07T02:01:16;26.90;;;23.43;;
11139;SDS011;5624;49.388;11.350;2023-12-07T02:03:42;27.23;;;24.23;;
11139;SDS011;5624;49.388;11.350;2023-12-07T02:06:08;28.77;;;24.10;;
11139;SDS011;5624;49.388;11.350;2023-12-07T02:08:35;26.80;;;23.67;;
11139;SDS011;5624;49.388;11.350;2023-12-07T02:11:06;25.70;;;22.90;;
11139;SDS011;5624;49.388;11.350;2023-12-07T02:13:35;27.27;;;23.03;;
11139;SDS011;5624;49.388;11.350;2023-12-07T02:16:07;29.27;;;23.87;;
11139;SDS011;5624;49.388;11.350;2023-12-07T02:21:54;27.10;;;23.43;;
11139;SDS011;5624;49.388;11.350;2023-12-07T02:24:23;26.43;;;22.10;;
11139;SDS011;5624;49.388;11.350;2023-12-07T02:26:53;29.47;;;23.83;;
11139;SDS011;5624;49.388;11.350;2023-12-07T02:29:19;26.53;;;22.93;;
11139;SDS011;5624;49.388;11.350;2023-12-07T02:31:45;26.83;;;22.93;;
11139;SDS011;5624;49.388;11.350;2023-12-07T02:34:10;28.30;;;23.93;;
11139;SDS011;5624;49.388;11.350;2023-12-07T02:36:37;27.90;;;23.17;;
11139;SDS011;5624;49.388;11.350;2023-12-07T02:39:04;26.13;;;23.20;;
11139;SDS011;5624;49.388;11.350;2023-12-07T02:41:31;28.03;;;22.50;;
11139;SDS011;5624;49.388;11.350;2023-12-07T02:43:58;27.63;;;22.73;;
11139;SDS011;5624;49.388;11.350;2023-12-07T02:46:24;26.20;;;22.67;;
11139;SDS011;5624;49.388;11.350;2023-12-07T02:48:51;27.20;;;22.93;;
11139;SDS011;5624;49.388;11.350;2023-12-07T02:51:16;28.97;;;23.63;;
11139;SDS011;5624;49.388;11.350;2023-12-07T02:53:42;25.50;;;22.57;;
11139;SDS011;5624;49.388;11.350;2023-12-07T02:56:07;27.13;;;23.73;;
11139;SDS011;5624;49.388;11.350;2023-12-07T02:58:33;25.80;;;22.43;;
11139;SDS011;5624;49.388;11.350;2023-12-07T03:00:58;24.20;;;21.60;;
11139;SDS011;5624;49.388;11.350;2023-12-07T03:03:24;25.27;;;22.27;;
11139;SDS011;5624;49.388;11.350;2023-12-07T03:05:50;27.80;;;22.47;;
11139;SDS011;5624;49.388;11.350;2023-12-07T03:08:15;26.83;;;22.37;;
11139;SDS011;5624;49.388;11.350;2023-12-07T03:10:41;25.93;;;22.30;;
11139;SDS011;5624;49.388;11.350;2023-12-07T03:13:06;22.77;;;20.40;;
11139;SDS011;5624;49.388;11.350;2023-12-07T03:15:32;25.63;;;22.83;;
11139;SDS011;5624;49.388;11.350;2023-12-07T03:17:58;26.77;;;22.30;;
11139;SDS011;5624;49.388;11.350;2023-12-07T03:20:23;24.20;;;21.70;;
11139;SDS011;5624;49.388;11.350;2023-12-07T03:22:49;23.70;;;21.10;;
11139;SDS011;5624;49.388;11.350;2023-12-07T03:25:14;25.63;;;21.57;;
11139;SDS011;5624;49.388;11.350;2023-12-07T03:27:40;26.00;;;23.17;;
11139;SDS011;5624;49.388;11.350;2023-12-07T03:30:05;24.23;;;20.13;;
11139;SDS011;5624;49.388;11.350;2023-12-07T03:32:32;23.33;;;20.50;;
11139;SDS011;5624;49.388;11.350;2023-12-07T03:34:57;25.47;;;22.33;;
11139;SDS011;5624;49.388;11.350;2023-12-07T03:37:23;26.40;;;22.63;;
11139;SDS011;5624;49.388;11.350;2023-12-07T03:39:48;25.20;;;22.23;;
11139;SDS011;5624;49.388;11.350;2023-12-07T03:42:14;24.87;;;21.83;;
11139;SDS011;5624;49.388;11.350;2023-12-07T03:44:39;25.23;;;21.80;;
11139;SDS011;5624;49.388;11.350;2023-12-07T03:47:05;25.03;;;22.27;;
11139;SDS011;5624;49.388;11.350;2023-12-07T03:49:30;25.83;;;21.03;;
11139;SDS011;5624;49.388;11.350;2023-12-07T03:51:56;24.00;;;21.40;;
11139;SDS011;5624;49.388;11.350;2023-12-07T03:54:21;24.67;;;21.10;;
11139;SDS011;5624;49.388;11.350;2023-12-07T03:56:47;25.07;;;21.97;;
11139;SDS011;5624;49.388;11.350;2023-12-07T03:59:12;26.13;;;22.67;;
11139;SDS011;5624;49.388;11.350;2023-12-07T04:01:38;25.87;;;21.67;;
11139;SDS011;5624;49.388;11.350;2023-12-07T04:04:04;27.50;;;22.97;;
11139;SDS011;5624;49.388;11.350;2023-12-07T04:06:30;25.60;;;22.83;;
11139;SDS011;5624;49.388;11.350;2023-12-07T04:08:55;26.63;;;22.90;;
11139;SDS011;5624;49.388;11.350;2023-12-07T04:11:21;25.00;;;22.10;;
11139;SDS011;5624;49.388;11.350;2023-12-07T04:13:47;25.03;;;22.43;;
11139;SDS011;5624;49.388;11.350;2023-12-07T04:16:13;26.20;;;22.00;;
11139;SDS011;5624;49.388;11.350;2023-12-07T04:18:39;26.40;;;22.37;;
11139;SDS011;5624;49.388;11.350;2023-12-07T04:21:05;28.80;;;22.80;;
11139;SDS011;5624;49.388;11.350;2023-12-07T04:23:30;26.37;;;22.50;;
11139;SDS011;5624;49.388;11.350;2023-12-07T04:25:56;26.77;;;22.40;;
11139;SDS011;5624;49.388;11.350;2023-12-07T04:28:22;27.70;;;23.23;;
11139;SDS011;5624;49.388;11.350;2023-12-07T04:30:47;27.53;;;22.37;;
11139;SDS011;5624;49.388;11.350;2023-12-07T04:33:13;25.13;;;22.43;;
11139;SDS011;5624;49.388;11.350;2023-12-07T04:35:38;26.17;;;21.80;;
11139;SDS011;5624;49.388;11.350;2023-12-07T04:38:04;28.43;;;23.00;;
11139;SDS011;5624;49.388;11.350;2023-12-07T04:40:29;30.43;;;24.37;;
11139;SDS011;5624;49.388;11.350;2023-12-07T04:42:55;26.33;;;23.40;;
11139;SDS011;5624;49.388;11.350;2023-12-07T04:45:21;26.83;;;23.37;;
11139;SDS011;5624;49.388;11.350;2023-12-07T04:47:47;28.93;;;25.20;;
11139;SDS011;5624;49.388;11.350;2023-12-07T04:50:12;29.90;;;23.83;;
11139;SDS011;5624;49.388;11.350;2023-12-07T04:52:38;27.30;;;24.37;;
11139;SDS011;5624;49.388;11.350;2023-12-07T04:55:04;31.10;;;25.43;;
11139;SDS011;5624;49.388;11.350;2023-12-07T04:57:31;29.77;;;24.57;;
11139;SDS011;5624;49.388;11.350;2023-12-07T05:00:00;30.40;;;25.03;;
11139;SDS011;5624;49.388;11.350;2023-12-07T05:02:30;29.80;;;25.47;;
11139;SDS011;5624;49.388;11.350;2023-12-07T05:04:56;29.00;;;24.23;;
11139;SDS011;5624;49.388;11.350;2023-12-07T05:07:22;30.17;;;25.80;;
11139;SDS011;5624;49.388;11.350;2023-12-07T05:09:48;29.20;;;24.27;;
11139;SDS011;5624;49.388;11.350;2023-12-07T05:12:15;28.73;;;24.17;;
11139;SDS011;5624;49.388;11.350;2023-12-07T05:14:41;29.33;;;24.77;;
11139;SDS011;5624;49.388;11.350;2023-12-07T05:17:06;32.83;;;27.40;;
11139;SDS011;5624;49.388;11.350;2023-12-07T05:19:32;29.73;;;26.40;;
11139;SDS011;5624;49.388;11.350;2023-12-07T05:21:57;30.90;;;25.53;;
11139;SDS011;5624;49.388;11.350;2023-12-07T05:24:23;28.87;;;25.60;;
11139;SDS011;5624;49.388;11.350;2023-12-07T05:26:48;31.27;;;27.10;;
11139;SDS011;5624;49.388;11.350;2023-12-07T05:29:14;31.70;;;27.30;;
11139;SDS011;5624;49.388;11.350;2023-12-07T05:31:40;30.33;;;27.03;;
11139;SDS011;5624;49.388;11.350;2023-12-07T05:34:06;31.83;;;27.03;;
11139;SDS011;5624;49.388;11.350;2023-12-07T05:36:32;34.40;;;28.00;;
11139;SDS011;5624;49.388;11.350;2023-12-07T05:38:58;35.17;;;28.30;;
11139;SDS011;5624;49.388;11.350;2023-12-07T05:41:24;33.23;;;27.03;;
11139;SDS011;5624;49.388;11.350;2023-12-07T05:43:50;33.90;;;27.77;;
11139;SDS011;5624;49.388;11.350;2023-12-07T05:46:17;31.97;;;27.83;;
11139;SDS011;5624;49.388;11.350;2023-12-07T05:48:43;31.77;;;27.30;;
11139;SDS011;5624;49.388;11.350;2023-12-07T05:51:15;31.97;;;27.67;;
11139;SDS011;5624;49.388;11.350;2023-12-07T05:53:41;32.87;;;27.03;;
11139;SDS011;5624;49.388;11.350;2023-12-07T05:56:08;32.13;;;26.93;;
11139;SDS011;5624;49.388;11.350;2023-12-07T05:58:34;35.17;;;28.00;;
11139;SDS011;5624;49.388;11.350;2023-12-07T06:01:00;33.87;;;28.63;;
11139;SDS011;5624;49.388;11.350;2023-12-07T06:03:27;33.00;;;28.20;;
11139;SDS011;5624;49.388;11.350;2023-12-07T06:05:52;32.10;;;26.63;;
11139;SDS011;5624;49.388;11.350;2023-12-07T06:08:18;28.43;;;25.30;;
11139;SDS011;5624;49.388;11.350;2023-12-07T06:10:44;35.27;;;28.30;;
11139;SDS011;5624;49.388;11.350;2023-12-07T06:13:09;33.20;;;28.10;;
11139;SDS011;5624;49.388;11.350;2023-12-07T06:15:35;33.47;;;26.93;;
11139;SDS011;5624;49.388;11.350;2023-12-07T06:18:01;31.03;;;26.77;;
11139;SDS011;5624;49.388;11.350;2023-12-07T06:20:26;31.50;;;26.63;;
11139;SDS011;5624;49.388;11.350;2023-12-07T06:22:52;31.10;;;25.87;;
11139;SDS011;5624;49.388;11.350;2023-12-07T06:25:17;30.00;;;26.40;;
11139;SDS011;5624;49.388;11.350;2023-12-07T06:27:43;30.33;;;25.67;;
11139;SDS011;5624;49.388;11.350;2023-12-07T06:30:09;31.97;;;26.10;;
11139;SDS011;5624;49.388;11.350;2023-12-07T06:32:35;27.97;;;24.50;;
11139;SDS011;5624;49.388;11.350;2023-12-07T06:35:01;26.10;;;23.03;;
11139;SDS011;5624;49.388;11.350;2023-12-07T06:37:29;28.97;;;25.00;;
11139;SDS011;5624;49.388;11.350;2023-12-07T06:39:55;31.07;;;26.80;;
11139;SDS011;5624;49.388;11.350;2023-12-07T06:42:20;30.37;;;26.67;;
11139;SDS011;5624;49.388;11.350;2023-12-07T06:44:46;30.77;;;26.50;;
11139;SDS011;5624;49.388;11.350;2023-12-07T06:47:14;30.80;;;26.97;;
11139;SDS011;5624;49.388;11.350;2023-12-07T06:49:40;31.43;;;27.53;;
11139;SDS011;5624;49.388;11.350;2023-12-07T06:52:05;31.13;;;26.67;;
11139;SDS011;5624;49.388;11.350;2023-12-07T06:54:31;31.10;;;26.13;;
11139;SDS011;5624;49.388;11.350;2023-12-07T06:56:56;31.63;;;27.07;;
11139;SDS011;5624;49.388;11.350;2023-12-07T06:59:22;31.67;;;25.80;;
11139;SDS011;5624;49.388;11.350;2023-12-07T07:01:47;30.57;;;26.33;;
11139;SDS011;5624;49.388;11.350;2023-12-07T07:04:13;32.53;;;26.53;;
11139;SDS011;5624;49.388;11.350;2023-12-07T07:06:42;30.47;;;25.73;;
11139;SDS011;5624;49.388;11.350;2023-12-07T07:09:08;31.23;;;26.23;;
11139;SDS011;5624;49.388;11.350;2023-12-07T07:11:33;30.37;;;27.10;;
11139;SDS011;5624;49.388;11.350;2023-12-07T07:13:59;30.23;;;26.40;;
11139;SDS011;5624;49.388;11.350;2023-12-07T07:16:25;31.30;;;26.63;;
11139;SDS011;5624;49.388;11.350;2023-12-07T07:18:51;30.53;;;27.23;;
11139;SDS011;5624;49.388;11.350;2023-12-07T07:21:17;29.87;;;26.13;;
11139;SDS011;5624;49.388;11.350;2023-12-07T07:23:44;30.63;;;27.03;;
11139;SDS011;5624;49.388;11.350;2023-12-07T07:26:09;31.17;;;26.60;;
11139;SDS011;5624;49.388;11.350;2023-12-07T07:28:35;32.10;;;28.27;;
11139;SDS011;5624;49.388;11.350;2023-12-07T07:31:01;32.57;;;26.83;;
11139;SDS011;5624;49.388;11.350;2023-12-07T07:33:27;30.27;;;26.47;;
11139;SDS011;5624;49.388;11.350;2023-12-07T07:35:53;31.57;;;27.37;;
11139;SDS011;5624;49.388;11.350;2023-12-07T07:38:19;33.37;;;27.50;;
11139;SDS011;5624;49.388;11.350;2023-12-07T07:40:44;32.00;;;28.53;;
11139;SDS011;5624;49.388;11.350;2023-12-07T07:43:12;33.03;;;27.20;;
11139;SDS011;5624;49.388;11.350;2023-12-07T07:45:37;30.53;;;27.23;;
11139;SDS011;5624;49.388;11.350;2023-12-07T07:48:03;32.90;;;26.57;;
11139;SDS011;5624;49.388;11.350;2023-12-07T07:50:29;30.47;;;26.77;;
11139;SDS011;5624;49.388;11.350;2023-12-07T07:52:54;31.27;;;26.77;;
11139;SDS011;5624;49.388;11.350;2023-12-07T07:55:20;30.63;;;27.33;;
11139;SDS011;5624;49.388;11.350;2023-12-07T07:57:46;36.43;;;30.93;;
11139;SDS011;5624;49.388;11.350;2023-12-07T08:00:11;30.63;;;25.90;;
11139;SDS011;5624;49.388;11.350;2023-12-07T08:02:38;30.33;;;26.03;;
11139;SDS011;5624;49.388;11.350;2023-12-07T08:05:03;28.23;;;25.27;;
11139;SDS011;5624;49.388;11.350;2023-12-07T08:07:29;29.30;;;25.40;;
11139;SDS011;5624;49.388;11.350;2023-12-07T08:09:55;30.33;;;25.60;;
11139;SDS011;5624;49.388;11.350;2023-12-07T08:12:20;29.23;;;26.23;;
11139;SDS011;5624;49.388;11.350;2023-12-07T08:14:48;30.07;;;26.87;;
11139;SDS011;5624;49.388;11.350;2023-12-07T08:17:14;28.43;;;25.30;;
11139;SDS011;5624;49.388;11.350;2023-12-07T08:19:41;29.07;;;25.33;;
11139;SDS011;5624;49.388;11.350;2023-12-07T08:22:07;30.37;;;27.20;;
11139;SDS011;5624;49.388;11.350;2023-12-07T08:24:33;29.97;;;26.70;;
11139;SDS011;5624;49.388;11.350;2023-12-07T08:26:58;28.60;;;25.37;;
11139;SDS011;5624;49.388;11.350;2023-12-07T08:29:24;27.90;;;24.90;;
11139;SDS011;5624;49.388;11.350;2023-12-07T08:31:50;28.27;;;25.33;;
11139;SDS011;5624;49.388;11.350;2023-12-07T08:34:16;27.20;;;24.10;;
11139;SDS011;5624;49.388;11.350;2023-12-07T08:36:41;26.17;;;23.37;;
11139;SDS011;5624;49.388;11.350;2023-12-07T08:39:07;27.73;;;24.33;;
11139;SDS011;5624;49.388;11.350;2023-12-07T08:41:34;26.83;;;24.10;;
11139;SDS011;5624;49.388;11.350;2023-12-07T08:44:01;27.13;;;24.23;;
11139;SDS011;5624;49.388;11.350;2023-12-07T08:46:26;27.40;;;24.47;;
11139;SDS011;5624;49.388;11.350;2023-12-07T08:48:52;25.80;;;23.00;;
11139;SDS011;5624;49.388;11.350;2023-12-07T08:51:18;26.53;;;23.63;;
11139;SDS011;5624;49.388;11.350;2023-12-07T08:53:44;28.90;;;25.53;;
11139;SDS011;5624;49.388;11.350;2023-12-07T08:56:10;28.50;;;24.97;;
11139;SDS011;5624;49.388;11.350;2023-12-07T08:58:37;30.90;;;27.67;;
11139;SDS011;5624;49.388;11.350;2023-12-07T09:01:03;46.20;;;41.43;;
11139;SDS011;5624;49.388;11.350;2023-12-07T09:03:30;37.33;;;32.63;;
11139;SDS011;5624;49.388;11.350;2023-12-07T09:05:57;27.83;;;24.67;;
11139;SDS011;5624;49.388;11.350;2023-12-07T09:08:23;28.70;;;24.83;;
11139;SDS011;5624;49.388;11.350;2023-12-07T09:10:48;31.67;;;26.07;;
11139;SDS011;5624;49.388;11.350;2023-12-07T09:13:16;28.67;;;24.53;;
11139;SDS011;5624;49.388;11.350;2023-12-07T09:15:44;27.63;;;24.60;;
11139;SDS011;5624;49.388;11.350;2023-12-07T09:18:10;28.53;;;25.27;;
11139;SDS011;5624;49.388;11.350;2023-12-07T09:20:41;27.57;;;24.53;;
11139;SDS011;5624;49.388;11.350;2023-12-07T09:23:12;31.43;;;28.03;;
11139;SDS011;5624;49.388;11.350;2023-12-07T09:25:38;29.27;;;25.33;;
11139;SDS011;5624;49.388;11.350;2023-12-07T09:28:05;34.53;;;30.47;;
11139;SDS011;5624;49.388;11.350;2023-12-07T09:30:31;51.13;;;41.83;;
11139;SDS011;5624;49.388;11.350;2023-12-07T09:32:58;119.13;;;106.57;;
11139;SDS011;5624;49.388;11.350;2023-12-07T09:35:24;39.53;;;34.30;;
11139;SDS011;5624;49.388;11.350;2023-12-07T09:37:50;27.27;;;24.43;;
11139;SDS011;5624;49.388;11.350;2023-12-07T09:40:16;31.67;;;26.37;;
11139;SDS011;5624;49.388;11.350;2023-12-07T09:42:43;29.67;;;24.40;;
11139;SDS011;5624;49.388;11.350;2023-12-07T09:45:09;27.83;;;24.80;;
11139;SDS011;5624;49.388;11.350;2023-12-07T09:47:35;27.93;;;23.00;;
11139;SDS011;5624;49.388;11.350;2023-12-07T09:50:03;29.27;;;25.07;;
11139;SDS011;5624;49.388;11.350;2023-12-07T09:52:30;29.40;;;25.63;;
11139;SDS011;5624;49.388;11.350;2023-12-07T09:54:56;28.57;;;23.17;;
11139;SDS011;5624;49.388;11.350;2023-12-07T09:57:22;28.33;;;24.80;;
11139;SDS011;5624;49.388;11.350;2023-12-07T09:59:48;28.23;;;24.33;;
11139;SDS011;5624;49.388;11.350;2023-12-07T10:02:13;27.50;;;24.13;;
11139;SDS011;5624;49.388;11.350;2023-12-07T10:04:39;28.00;;;23.73;;
11139;SDS011;5624;49.388;11.350;2023-12-07T10:07:05;27.13;;;22.83;;
11139;SDS011;5624;49.388;11.350;2023-12-07T10:09:34;28.47;;;23.73;;
11139;SDS011;5624;49.388;11.350;2023-12-07T10:12:03;25.43;;;22.07;;
11139;SDS011;5624;49.388;11.350;2023-12-07T10:14:29;25.40;;;21.80;;
11139;SDS011;5624;49.388;11.350;2023-12-07T10:16:55;26.13;;;22.03;;
11139;SDS011;5624;49.388;11.350;2023-12-07T10:19:21;25.97;;;22.60;;
11139;SDS011;5624;49.388;11.350;2023-12-07T10:21:48;25.50;;;22.37;;
11139;SDS011;5624;49.388;11.350;2023-12-07T10:24:17;25.50;;;20.67;;
11139;SDS011;5624;49.388;11.350;2023-12-07T10:26:43;26.63;;;22.60;;
11139;SDS011;5624;49.388;11.350;2023-12-07T10:29:10;22.43;;;19.83;;
11139;SDS011;5624;49.388;11.350;2023-12-07T10:31:36;24.20;;;20.07;;
11139;SDS011;5624;49.388;11.350;2023-12-07T10:34:02;20.77;;;18.30;;
11139;SDS011;5624;49.388;11.350;2023-12-07T10:36:29;27.13;;;24.23;;
11139;SDS011;5624;49.388;11.350;2023-12-07T10:38:55;20.97;;;17.97;;
11139;SDS011;5624;49.388;11.350;2023-12-07T10:41:21;21.37;;;17.70;;
11139;SDS011;5624;49.388;11.350;2023-12-07T10:43:52;21.20;;;17.77;;
11139;SDS011;5624;49.388;11.350;2023-12-07T10:46:21;22.67;;;20.10;;
11139;SDS011;5624;49.388;11.350;2023-12-07T10:48:47;21.00;;;17.30;;
11139;SDS011;5624;49.388;11.350;2023-12-07T10:51:37;19.13;;;16.27;;
11139;SDS011;5624;49.388;11.350;2023-12-07T10:54:02;18.83;;;16.27;;
11139;SDS011;5624;49.388;11.350;2023-12-07T10:56:39;19.70;;;16.53;;
11139;SDS011;5624;49.388;11.350;2023-12-07T10:59:11;21.07;;;18.33;;
11139;SDS011;5624;49.388;11.350;2023-12-07T11:01:38;17.13;;;14.87;;
11139;SDS011;5624;49.388;11.350;2023-12-07T11:04:05;16.30;;;13.47;;
11139;SDS011;5624;49.388;11.350;2023-12-07T11:06:32;13.73;;;12.30;;
11139;SDS011;5624;49.388;11.350;2023-12-07T11:09:00;16.73;;;12.83;;
11139;SDS011;5624;49.388;11.350;2023-12-07T11:14:05;19.73;;;15.60;;
11139;SDS011;5624;49.388;11.350;2023-12-07T11:16:33;16.23;;;10.80;;
11139;SDS011;5624;49.388;11.350;2023-12-07T11:19:00;14.93;;;9.17;;
11139;SDS011;5624;49.388;11.350;2023-12-07T11:21:26;15.87;;;9.53;;
11139;SDS011;5624;49.388;11.350;2023-12-07T11:23:53;16.80;;;9.57;;
11139;SDS011;5624;49.388;11.350;2023-12-07T11:26:25;12.20;;;9.00;;
11139;SDS011;5624;49.388;11.350;2023-12-07T11:28:51;13.73;;;12.27;;
11139;SDS011;5624;49.388;11.350;2023-12-07T11:31:17;14.40;;;12.00;;
11139;SDS011;5624;49.388;11.350;2023-12-07T11:33:45;14.87;;;12.20;;
11139;SDS011;5624;49.388;11.350;2023-12-07T11:36:12;11.67;;;10.07;;
11139;SDS011;5624;49.388;11.350;2023-12-07T11:38:39;9.97;;;8.97;;
11139;SDS011;5624;49.388;11.350;2023-12-07T11:41:34;13.77;;;11.73;;
11139;SDS011;5624;49.388;11.350;2023-12-07T11:44:05;13.83;;;11.23;;
11139;SDS011;5624;49.388;11.350;2023-12-07T11:46:30;15.47;;;12.00;;
11139;SDS011;5624;49.388;11.350;2023-12-07T11:48:56;13.47;;;11.87;;
11139;SDS011;5624;49.388;11.350;2023-12-07T11:51:23;16.70;;;12.87;;
11139;SDS011;5624;49.388;11.350;2023-12-07T11:53:49;13.77;;;11.40;;
11139;SDS011;5624;49.388;11.350;2023-12-07T11:56:16;12.70;;;11.40;;
11139;SDS011;5624;49.388;11.350;2023-12-07T11:58:45;13.57;;;11.27;;
11139;SDS011;5624;49.388;11.350;2023-12-07T12:01:11;15.63;;;12.70;;
11139;SDS011;5624;49.388;11.350;2023-12-07T12:03:37;13.90;;;12.13;;
11139;SDS011;5624;49.388;11.350;2023-12-07T12:06:03;14.57;;;11.47;;
11139;SDS011;5624;49.388;11.350;2023-12-07T12:08:31;12.60;;;11.30;;
11139;SDS011;5624;49.388;11.350;2023-12-07T12:10:57;13.83;;;9.80;;
11139;SDS011;5624;49.388;11.350;2023-12-07T12:13:29;12.67;;;10.40;;
11139;SDS011;5624;49.388;11.350;2023-12-07T12:15:58;13.03;;;10.80;;
11139;SDS011;5624;49.388;11.350;2023-12-07T12:18:23;12.97;;;11.03;;
11139;SDS011;5624;49.388;11.350;2023-12-07T12:20:51;14.00;;;12.17;;
11139;SDS011;5624;49.388;11.350;2023-12-07T12:23:17;12.80;;;10.33;;
11139;SDS011;5624;49.388;11.350;2023-12-07T12:25:43;12.40;;;10.80;;
11139;SDS011;5624;49.388;11.350;2023-12-07T12:28:10;12.00;;;9.90;;
11139;SDS011;5624;49.388;11.350;2023-12-07T12:30:36;13.10;;;11.23;;
11139;SDS011;5624;49.388;11.350;2023-12-07T12:33:03;12.70;;;10.90;;
11139;SDS011;5624;49.388;11.350;2023-12-07T12:35:29;18.67;;;12.97;;
11139;SDS011;5624;49.388;11.350;2023-12-07T12:37:55;15.13;;;12.00;;
11139;SDS011;5624;49.388;11.350;2023-12-07T12:40:21;14.87;;;11.37;;
11139;SDS011;5624;49.388;11.350;2023-12-07T12:42:51;12.40;;;10.63;;
11139;SDS011;5624;49.388;11.350;2023-12-07T12:45:18;12.03;;;9.30;;
11139;SDS011;5624;49.388;11.350;2023-12-07T12:47:44;12.23;;;10.03;;
11139;SDS011;5624;49.388;11.350;2023-12-07T12:50:12;12.67;;;9.90;;
11139;SDS011;5624;49.388;11.350;2023-12-07T12:52:57;13.63;;;10.73;;
11139;SDS011;5624;49.388;11.350;2023-12-07T12:55:25;11.57;;;10.23;;
11139;SDS011;5624;49.388;11.350;2023-12-07T12:57:51;11.03;;;9.80;;
11139;SDS011;5624;49.388;11.350;2023-12-07T13:00:17;12.27;;;10.50;;
11139;SDS011;5624;49.388;11.350;2023-12-07T13:02:42;12.50;;;11.20;;
11139;SDS011;5624;49.388;11.350;2023-12-07T13:05:08;15.53;;;13.73;;
11139;SDS011;5624;49.388;11.350;2023-12-07T13:07:34;14.63;;;12.43;;
11139;SDS011;5624;49.388;11.350;2023-12-07T13:10:00;13.83;;;12.43;;
11139;SDS011;5624;49.388;11.350;2023-12-07T13:12:26;13.53;;;12.13;;
11139;SDS011;5624;49.388;11.350;2023-12-07T13:14:53;18.80;;;16.80;;
11139;SDS011;5624;49.388;11.350;2023-12-07T13:17:19;17.37;;;15.67;;
11139;SDS011;5624;49.388;11.350;2023-12-07T13:19:44;20.30;;;18.13;;
11139;SDS011;5624;49.388;11.350;2023-12-07T13:22:10;11.53;;;10.07;;
11139;SDS011;5624;49.388;11.350;2023-12-07T13:24:35;13.43;;;12.00;;
11139;SDS011;5624;49.388;11.350;2023-12-07T13:27:01;13.13;;;11.40;;
11139;SDS011;5624;49.388;11.350;2023-12-07T13:29:27;14.30;;;12.13;;
11139;SDS011;5624;49.388;11.350;2023-12-07T13:31:52;12.53;;;10.90;;
11139;SDS011;5624;49.388;11.350;2023-12-07T13:34:18;12.53;;;11.00;;
11139;SDS011;5624;49.388;11.350;2023-12-07T13:36:43;15.90;;;13.77;;
11139;SDS011;5624;49.388;11.350;2023-12-07T13:39:09;15.67;;;13.77;;
11139;SDS011;5624;49.388;11.350;2023-12-07T13:41:37;15.77;;;13.93;;
11139;SDS011;5624;49.388;11.350;2023-12-07T13:44:03;14.93;;;13.53;;
11139;SDS011;5624;49.388;11.350;2023-12-07T13:46:29;14.40;;;12.90;;
11139;SDS011;5624;49.388;11.350;2023-12-07T13:48:56;15.60;;;13.47;;
11139;SDS011;5624;49.388;11.350;2023-12-07T13:51:22;16.97;;;14.33;;
11139;SDS011;5624;49.388;11.350;2023-12-07T13:53:48;16.53;;;14.30;;
11139;SDS011;5624;49.388;11.350;2023-12-07T13:56:13;16.13;;;14.43;;
11139;SDS011;5624;49.388;11.350;2023-12-07T13:58:39;15.37;;;13.77;;
11139;SDS011;5624;49.388;11.350;2023-12-07T14:01:06;15.77;;;14.03;;
11139;SDS011;5624;49.388;11.350;2023-12-07T14:03:32;14.03;;;12.60;;
11139;SDS011;5624;49.388;11.350;2023-12-07T14:05:57;15.03;;;12.57;;
11139;SDS011;5624;49.388;11.350;2023-12-07T14:08:23;15.33;;;12.43;;
11139;SDS011;5624;49.388;11.350;2023-12-07T14:10:50;13.93;;;12.43;;
11139;SDS011;5624;49.388;11.350;2023-12-07T14:13:16;13.23;;;11.83;;
11139;SDS011;5624;49.388;11.350;2023-12-07T14:15:42;12.87;;;11.47;;
11139;SDS011;5624;49.388;11.350;2023-12-07T14:18:08;13.13;;;11.73;;
11139;SDS011;5624;49.388;11.350;2023-12-07T14:20:33;13.73;;;12.37;;
11139;SDS011;5624;49.388;11.350;2023-12-07T14:22:59;14.60;;;12.33;;